sensor_id;sensor_type;location;lat;lon;timestamp;P1;durP1;ratioP1;P2;durP2;ratioP2
5521;SDS011;2783;48.730;8.006;2023-08-06T00:01:50;5.25;;;1.98;;
5521;SDS011;2783;48.730;8.006;2023-08-06T00:04:15;4.78;;;1.88;;
5521;SDS011;2783;48.730;8.006;2023-08-06T00:06:41;4.03;;;2.38;;
5521;SDS011;2783;48.730;8.006;2023-08-06T00:09:07;4.90;;;2.38;;
5521;SDS011;2783;48.730;8.006;2023-08-06T00:11:32;4.90;;;2.25;;
5521;SDS011;2783;48.730;8.006;2023-08-06T00:13:58;3.95;;;2.10;;
5521;SDS011;2783;48.730;8.006;2023-08-06T00:16:23;3.72;;;2.47;;
5521;SDS011;2783;48.730;8.006;2023-08-06T00:18:48;3.13;;;2.03;;
5521;SDS011;2783;48.730;8.006;2023-08-06T00:21:14;3.75;;;2.28;;
5521;SDS011;2783;48.730;8.006;2023-08-06T00:23:40;4.70;;;2.15;;
5521;SDS011;2783;48.730;8.006;2023-08-06T00:26:06;4.03;;;2.15;;
5521;SDS011;2783;48.730;8.006;2023-08-06T00:28:31;3.05;;;1.77;;
5521;SDS011;2783;48.730;8.006;2023-08-06T00:30:57;5.90;;;2.33;;
5521;SDS011;2783;48.730;8.006;2023-08-06T00:33:23;3.92;;;2.10;;
5521;SDS011;2783;48.730;8.006;2023-08-06T00:35:49;3.53;;;2.00;;
5521;SDS011;2783;48.730;8.006;2023-08-06T00:38:14;3.72;;;1.70;;
5521;SDS011;2783;48.730;8.006;2023-08-06T00:40:40;5.30;;;1.98;;
5521;SDS011;2783;48.730;8.006;2023-08-06T00:43:05;3.95;;;1.70;;
5521;SDS011;2783;48.730;8.006;2023-08-06T00:45:31;4.45;;;1.83;;
5521;SDS011;2783;48.730;8.006;2023-08-06T00:48:00;7.10;;;2.22;;
5521;SDS011;2783;48.730;8.006;2023-08-06T00:50:26;5.85;;;2.00;;
5521;SDS011;2783;48.730;8.006;2023-08-06T00:52:51;3.65;;;2.05;;
5521;SDS011;2783;48.730;8.006;2023-08-06T00:55:17;4.53;;;1.92;;
5521;SDS011;2783;48.730;8.006;2023-08-06T00:57:43;3.08;;;1.75;;
5521;SDS011;2783;48.730;8.006;2023-08-06T01:03:03;5.22;;;2.17;;
5521;SDS011;2783;48.730;8.006;2023-08-06T01:05:28;3.85;;;1.85;;
5521;SDS011;2783;48.730;8.006;2023-08-06T01:08:03;4.75;;;1.88;;
5521;SDS011;2783;48.730;8.006;2023-08-06T01:15:49;5.63;;;2.38;;
5521;SDS011;2783;48.730;8.006;2023-08-06T01:18:16;5.38;;;1.52;;
5521;SDS011;2783;48.730;8.006;2023-08-06T01:20:41;3.50;;;1.90;;
5521;SDS011;2783;48.730;8.006;2023-08-06T01:23:07;3.70;;;1.83;;
5521;SDS011;2783;48.730;8.006;2023-08-06T01:25:39;7.30;;;2.28;;
5521;SDS011;2783;48.730;8.006;2023-08-06T01:28:25;4.00;;;1.70;;
5521;SDS011;2783;48.730;8.006;2023-08-06T01:30:59;3.75;;;1.70;;
5521;SDS011;2783;48.730;8.006;2023-08-06T01:33:26;3.05;;;2.15;;
5521;SDS011;2783;48.730;8.006;2023-08-06T01:35:55;3.67;;;1.70;;
5521;SDS011;2783;48.730;8.006;2023-08-06T01:38:22;3.60;;;1.88;;
5521;SDS011;2783;48.730;8.006;2023-08-06T01:40:47;4.65;;;2.42;;
5521;SDS011;2783;48.730;8.006;2023-08-06T01:43:13;3.47;;;2.00;;
5521;SDS011;2783;48.730;8.006;2023-08-06T01:45:38;4.40;;;1.83;;
5521;SDS011;2783;48.730;8.006;2023-08-06T01:48:03;4.57;;;1.77;;
5521;SDS011;2783;48.730;8.006;2023-08-06T01:50:29;3.25;;;1.58;;
5521;SDS011;2783;48.730;8.006;2023-08-06T01:52:54;3.58;;;1.60;;
5521;SDS011;2783;48.730;8.006;2023-08-06T01:55:20;4.68;;;1.88;;
5521;SDS011;2783;48.730;8.006;2023-08-06T01:57:45;3.45;;;1.85;;
5521;SDS011;2783;48.730;8.006;2023-08-06T02:00:11;4.10;;;1.83;;
5521;SDS011;2783;48.730;8.006;2023-08-06T02:02:36;4.75;;;1.88;;
5521;SDS011;2783;48.730;8.006;2023-08-06T02:05:02;6.63;;;1.73;;
5521;SDS011;2783;48.730;8.006;2023-08-06T02:07:27;4.75;;;1.67;;
5521;SDS011;2783;48.730;8.006;2023-08-06T02:09:53;5.20;;;2.25;;
5521;SDS011;2783;48.730;8.006;2023-08-06T02:12:18;6.80;;;2.28;;
5521;SDS011;2783;48.730;8.006;2023-08-06T02:14:44;5.30;;;1.63;;
5521;SDS011;2783;48.730;8.006;2023-08-06T02:17:09;4.13;;;1.55;;
5521;SDS011;2783;48.730;8.006;2023-08-06T02:19:34;4.72;;;2.05;;
5521;SDS011;2783;48.730;8.006;2023-08-06T02:22:00;6.65;;;2.70;;
5521;SDS011;2783;48.730;8.006;2023-08-06T02:24:25;5.78;;;1.80;;
5521;SDS011;2783;48.730;8.006;2023-08-06T02:26:51;5.10;;;2.15;;
5521;SDS011;2783;48.730;8.006;2023-08-06T02:29:20;5.50;;;2.10;;
5521;SDS011;2783;48.730;8.006;2023-08-06T02:31:45;4.63;;;1.80;;
5521;SDS011;2783;48.730;8.006;2023-08-06T02:34:11;3.85;;;1.38;;
5521;SDS011;2783;48.730;8.006;2023-08-06T02:36:36;4.05;;;1.38;;
5521;SDS011;2783;48.730;8.006;2023-08-06T02:39:01;2.85;;;1.42;;
5521;SDS011;2783;48.730;8.006;2023-08-06T02:41:27;3.80;;;0.95;;
5521;SDS011;2783;48.730;8.006;2023-08-06T02:43:52;3.65;;;1.00;;
5521;SDS011;2783;48.730;8.006;2023-08-06T02:46:18;3.25;;;1.00;;
5521;SDS011;2783;48.730;8.006;2023-08-06T02:48:43;3.15;;;1.13;;
5521;SDS011;2783;48.730;8.006;2023-08-06T02:51:08;4.45;;;1.10;;
5521;SDS011;2783;48.730;8.006;2023-08-06T02:53:34;5.70;;;1.35;;
5521;SDS011;2783;48.730;8.006;2023-08-06T02:55:59;1.85;;;1.08;;
5521;SDS011;2783;48.730;8.006;2023-08-06T02:58:25;3.22;;;1.15;;
5521;SDS011;2783;48.730;8.006;2023-08-06T03:01:08;2.95;;;1.00;;
5521;SDS011;2783;48.730;8.006;2023-08-06T03:03:34;5.97;;;1.23;;
5521;SDS011;2783;48.730;8.006;2023-08-06T03:05:59;2.08;;;1.20;;
5521;SDS011;2783;48.730;8.006;2023-08-06T03:08:25;4.70;;;0.90;;
5521;SDS011;2783;48.730;8.006;2023-08-06T03:10:51;3.05;;;0.90;;
5521;SDS011;2783;48.730;8.006;2023-08-06T03:13:16;3.17;;;1.10;;
5521;SDS011;2783;48.730;8.006;2023-08-06T03:15:43;1.35;;;0.80;;
5521;SDS011;2783;48.730;8.006;2023-08-06T03:18:08;3.25;;;0.90;;
5521;SDS011;2783;48.730;8.006;2023-08-06T03:20:34;2.42;;;1.02;;
5521;SDS011;2783;48.730;8.006;2023-08-06T03:22:59;2.97;;;0.70;;
5521;SDS011;2783;48.730;8.006;2023-08-06T03:25:24;5.32;;;1.38;;
5521;SDS011;2783;48.730;8.006;2023-08-06T03:27:50;1.92;;;0.93;;
5521;SDS011;2783;48.730;8.006;2023-08-06T03:30:15;7.03;;;1.27;;
5521;SDS011;2783;48.730;8.006;2023-08-06T03:32:41;6.35;;;1.65;;
5521;SDS011;2783;48.730;8.006;2023-08-06T03:35:06;6.93;;;1.10;;
5521;SDS011;2783;48.730;8.006;2023-08-06T03:37:32;1.77;;;0.77;;
5521;SDS011;2783;48.730;8.006;2023-08-06T03:39:57;5.20;;;0.93;;
5521;SDS011;2783;48.730;8.006;2023-08-06T03:42:23;2.55;;;1.05;;
5521;SDS011;2783;48.730;8.006;2023-08-06T03:44:48;1.50;;;0.80;;
5521;SDS011;2783;48.730;8.006;2023-08-06T03:47:13;3.15;;;1.00;;
5521;SDS011;2783;48.730;8.006;2023-08-06T03:49:39;2.25;;;0.93;;
5521;SDS011;2783;48.730;8.006;2023-08-06T03:52:05;2.00;;;1.08;;
5521;SDS011;2783;48.730;8.006;2023-08-06T03:54:30;3.45;;;1.15;;
5521;SDS011;2783;48.730;8.006;2023-08-06T03:56:56;3.30;;;1.00;;
5521;SDS011;2783;48.730;8.006;2023-08-06T03:59:21;3.38;;;1.00;;
5521;SDS011;2783;48.730;8.006;2023-08-06T04:01:47;2.65;;;1.00;;
5521;SDS011;2783;48.730;8.006;2023-08-06T04:04:12;5.00;;;1.20;;
5521;SDS011;2783;48.730;8.006;2023-08-06T04:06:38;4.88;;;1.50;;
5521;SDS011;2783;48.730;8.006;2023-08-06T04:09:03;4.05;;;1.55;;
5521;SDS011;2783;48.730;8.006;2023-08-06T04:11:28;2.85;;;1.45;;
5521;SDS011;2783;48.730;8.006;2023-08-06T04:13:54;4.55;;;1.73;;
5521;SDS011;2783;48.730;8.006;2023-08-06T04:16:20;5.55;;;2.30;;
5521;SDS011;2783;48.730;8.006;2023-08-06T04:18:46;3.85;;;1.63;;
5521;SDS011;2783;48.730;8.006;2023-08-06T04:21:11;4.65;;;1.80;;
5521;SDS011;2783;48.730;8.006;2023-08-06T04:23:37;3.75;;;2.03;;
5521;SDS011;2783;48.730;8.006;2023-08-06T04:26:02;5.10;;;1.40;;
5521;SDS011;2783;48.730;8.006;2023-08-06T04:28:28;7.45;;;2.13;;
5521;SDS011;2783;48.730;8.006;2023-08-06T04:30:53;4.40;;;1.20;;
5521;SDS011;2783;48.730;8.006;2023-08-06T04:33:19;5.55;;;1.20;;
5521;SDS011;2783;48.730;8.006;2023-08-06T04:35:45;1.98;;;1.02;;
5521;SDS011;2783;48.730;8.006;2023-08-06T04:38:11;3.42;;;1.20;;
5521;SDS011;2783;48.730;8.006;2023-08-06T04:40:36;3.97;;;1.20;;
5521;SDS011;2783;48.730;8.006;2023-08-06T04:43:02;2.58;;;0.90;;
5521;SDS011;2783;48.730;8.006;2023-08-06T04:45:27;4.10;;;1.00;;
5521;SDS011;2783;48.730;8.006;2023-08-06T04:47:53;4.28;;;1.20;;
5521;SDS011;2783;48.730;8.006;2023-08-06T04:50:19;3.35;;;1.20;;
5521;SDS011;2783;48.730;8.006;2023-08-06T04:52:45;3.60;;;1.10;;
5521;SDS011;2783;48.730;8.006;2023-08-06T04:55:10;2.33;;;1.08;;
5521;SDS011;2783;48.730;8.006;2023-08-06T04:57:36;3.55;;;1.02;;
5521;SDS011;2783;48.730;8.006;2023-08-06T05:00:01;1.98;;;1.00;;
5521;SDS011;2783;48.730;8.006;2023-08-06T05:02:27;2.65;;;1.15;;
5521;SDS011;2783;48.730;8.006;2023-08-06T05:04:52;5.10;;;1.13;;
5521;SDS011;2783;48.730;8.006;2023-08-06T05:07:17;4.07;;;1.27;;
5521;SDS011;2783;48.730;8.006;2023-08-06T05:09:43;4.43;;;0.82;;
5521;SDS011;2783;48.730;8.006;2023-08-06T05:12:09;2.80;;;0.80;;
5521;SDS011;2783;48.730;8.006;2023-08-06T05:14:34;5.45;;;0.95;;
5521;SDS011;2783;48.730;8.006;2023-08-06T05:16:59;0.85;;;0.60;;
5521;SDS011;2783;48.730;8.006;2023-08-06T05:19:27;1.20;;;0.50;;
5521;SDS011;2783;48.730;8.006;2023-08-06T05:21:52;4.43;;;0.70;;
5521;SDS011;2783;48.730;8.006;2023-08-06T05:24:18;3.50;;;0.60;;
5521;SDS011;2783;48.730;8.006;2023-08-06T05:26:43;3.50;;;0.75;;
5521;SDS011;2783;48.730;8.006;2023-08-06T05:29:11;3.72;;;0.75;;
5521;SDS011;2783;48.730;8.006;2023-08-06T05:31:37;2.65;;;0.57;;
5521;SDS011;2783;48.730;8.006;2023-08-06T05:34:02;1.40;;;0.57;;
5521;SDS011;2783;48.730;8.006;2023-08-06T05:36:28;2.03;;;0.55;;
5521;SDS011;2783;48.730;8.006;2023-08-06T05:38:53;1.40;;;0.60;;
5521;SDS011;2783;48.730;8.006;2023-08-06T05:41:19;1.05;;;0.68;;
5521;SDS011;2783;48.730;8.006;2023-08-06T05:43:44;2.03;;;0.50;;
5521;SDS011;2783;48.730;8.006;2023-08-06T05:46:10;1.50;;;0.75;;
5521;SDS011;2783;48.730;8.006;2023-08-06T05:48:35;1.63;;;0.50;;
5521;SDS011;2783;48.730;8.006;2023-08-06T05:51:01;3.20;;;1.13;;
5521;SDS011;2783;48.730;8.006;2023-08-06T05:53:26;1.05;;;0.40;;
5521;SDS011;2783;48.730;8.006;2023-08-06T05:55:52;0.52;;;0.40;;
5521;SDS011;2783;48.730;8.006;2023-08-06T05:58:17;1.90;;;0.52;;
5521;SDS011;2783;48.730;8.006;2023-08-06T06:00:45;1.08;;;0.60;;
5521;SDS011;2783;48.730;8.006;2023-08-06T06:03:10;0.57;;;0.30;;
5521;SDS011;2783;48.730;8.006;2023-08-06T06:05:37;0.85;;;0.60;;
5521;SDS011;2783;48.730;8.006;2023-08-06T06:08:04;1.55;;;0.85;;
5521;SDS011;2783;48.730;8.006;2023-08-06T06:10:29;2.60;;;0.70;;
5521;SDS011;2783;48.730;8.006;2023-08-06T06:12:54;0.90;;;0.60;;
5521;SDS011;2783;48.730;8.006;2023-08-06T06:15:20;2.67;;;0.70;;
5521;SDS011;2783;48.730;8.006;2023-08-06T06:17:45;3.10;;;1.10;;
5521;SDS011;2783;48.730;8.006;2023-08-06T06:20:11;3.03;;;1.00;;
5521;SDS011;2783;48.730;8.006;2023-08-06T06:22:36;2.88;;;0.75;;
5521;SDS011;2783;48.730;8.006;2023-08-06T06:25:01;4.20;;;0.60;;
5521;SDS011;2783;48.730;8.006;2023-08-06T06:27:27;1.77;;;0.70;;
5521;SDS011;2783;48.730;8.006;2023-08-06T06:29:52;2.40;;;0.80;;
5521;SDS011;2783;48.730;8.006;2023-08-06T06:32:19;2.88;;;0.77;;
5521;SDS011;2783;48.730;8.006;2023-08-06T06:34:45;2.90;;;0.90;;
5521;SDS011;2783;48.730;8.006;2023-08-06T06:37:10;4.72;;;1.67;;
5521;SDS011;2783;48.730;8.006;2023-08-06T06:39:36;1.55;;;0.85;;
5521;SDS011;2783;48.730;8.006;2023-08-06T06:42:01;2.67;;;0.80;;
5521;SDS011;2783;48.730;8.006;2023-08-06T06:44:27;1.48;;;0.77;;
5521;SDS011;2783;48.730;8.006;2023-08-06T06:46:52;1.10;;;0.90;;
5521;SDS011;2783;48.730;8.006;2023-08-06T06:49:17;1.92;;;0.68;;
5521;SDS011;2783;48.730;8.006;2023-08-06T06:51:43;2.83;;;0.90;;
5521;SDS011;2783;48.730;8.006;2023-08-06T06:54:08;3.13;;;0.75;;
5521;SDS011;2783;48.730;8.006;2023-08-06T06:56:34;1.35;;;0.60;;
5521;SDS011;2783;48.730;8.006;2023-08-06T06:58:59;2.03;;;0.68;;
5521;SDS011;2783;48.730;8.006;2023-08-06T07:01:24;3.22;;;0.90;;
5521;SDS011;2783;48.730;8.006;2023-08-06T07:03:50;2.40;;;0.80;;
5521;SDS011;2783;48.730;8.006;2023-08-06T07:06:15;1.58;;;0.80;;
5521;SDS011;2783;48.730;8.006;2023-08-06T07:08:43;2.55;;;0.60;;
5521;SDS011;2783;48.730;8.006;2023-08-06T07:11:08;2.63;;;0.63;;
5521;SDS011;2783;48.730;8.006;2023-08-06T07:13:34;3.63;;;1.10;;
5521;SDS011;2783;48.730;8.006;2023-08-06T07:16:00;2.83;;;0.95;;
5521;SDS011;2783;48.730;8.006;2023-08-06T07:18:25;2.15;;;1.15;;
5521;SDS011;2783;48.730;8.006;2023-08-06T07:20:51;2.42;;;1.20;;
5521;SDS011;2783;48.730;8.006;2023-08-06T07:23:20;3.55;;;1.02;;
5521;SDS011;2783;48.730;8.006;2023-08-06T07:25:46;3.58;;;0.80;;
5521;SDS011;2783;48.730;8.006;2023-08-06T07:28:12;6.95;;;1.08;;
5521;SDS011;2783;48.730;8.006;2023-08-06T07:30:39;2.80;;;0.80;;
5521;SDS011;2783;48.730;8.006;2023-08-06T07:33:05;5.25;;;0.90;;
5521;SDS011;2783;48.730;8.006;2023-08-06T07:35:30;3.90;;;0.85;;
5521;SDS011;2783;48.730;8.006;2023-08-06T07:37:55;2.95;;;0.82;;
5521;SDS011;2783;48.730;8.006;2023-08-06T07:40:21;4.97;;;1.05;;
5521;SDS011;2783;48.730;8.006;2023-08-06T07:42:46;2.20;;;0.73;;
5521;SDS011;2783;48.730;8.006;2023-08-06T07:45:12;3.35;;;1.00;;
5521;SDS011;2783;48.730;8.006;2023-08-06T07:47:38;5.25;;;0.80;;
5521;SDS011;2783;48.730;8.006;2023-08-06T07:50:03;1.95;;;0.80;;
5521;SDS011;2783;48.730;8.006;2023-08-06T07:52:29;4.40;;;0.80;;
5521;SDS011;2783;48.730;8.006;2023-08-06T07:54:54;4.03;;;1.42;;
5521;SDS011;2783;48.730;8.006;2023-08-06T07:57:20;5.63;;;1.38;;
5521;SDS011;2783;48.730;8.006;2023-08-06T07:59:45;1.90;;;0.75;;
5521;SDS011;2783;48.730;8.006;2023-08-06T08:02:11;2.17;;;0.70;;
5521;SDS011;2783;48.730;8.006;2023-08-06T08:04:36;4.47;;;1.15;;
5521;SDS011;2783;48.730;8.006;2023-08-06T08:07:01;1.48;;;0.73;;
5521;SDS011;2783;48.730;8.006;2023-08-06T08:09:27;3.47;;;0.90;;
5521;SDS011;2783;48.730;8.006;2023-08-06T08:11:53;3.60;;;1.45;;
5521;SDS011;2783;48.730;8.006;2023-08-06T08:14:18;4.22;;;1.42;;
5521;SDS011;2783;48.730;8.006;2023-08-06T08:16:44;3.95;;;1.08;;
5521;SDS011;2783;48.730;8.006;2023-08-06T08:19:09;3.03;;;1.40;;
5521;SDS011;2783;48.730;8.006;2023-08-06T08:21:34;8.60;;;1.30;;
5521;SDS011;2783;48.730;8.006;2023-08-06T08:24:00;5.60;;;1.30;;
5521;SDS011;2783;48.730;8.006;2023-08-06T08:26:26;5.75;;;1.10;;
5521;SDS011;2783;48.730;8.006;2023-08-06T08:28:53;2.17;;;0.70;;
5521;SDS011;2783;48.730;8.006;2023-08-06T08:31:18;4.40;;;1.10;;
5521;SDS011;2783;48.730;8.006;2023-08-06T08:33:44;3.13;;;0.90;;
5521;SDS011;2783;48.730;8.006;2023-08-06T08:36:09;3.45;;;1.33;;
5521;SDS011;2783;48.730;8.006;2023-08-06T08:38:35;4.68;;;1.50;;
5521;SDS011;2783;48.730;8.006;2023-08-06T08:41:01;4.30;;;1.30;;
5521;SDS011;2783;48.730;8.006;2023-08-06T08:43:26;3.38;;;1.10;;
5521;SDS011;2783;48.730;8.006;2023-08-06T08:45:52;3.83;;;1.02;;
5521;SDS011;2783;48.730;8.006;2023-08-06T08:48:25;2.28;;;0.88;;
5521;SDS011;2783;48.730;8.006;2023-08-06T08:50:52;4.88;;;0.98;;
5521;SDS011;2783;48.730;8.006;2023-08-06T08:53:18;2.55;;;0.98;;
5521;SDS011;2783;48.730;8.006;2023-08-06T08:55:46;1.70;;;1.17;;
5521;SDS011;2783;48.730;8.006;2023-08-06T08:58:12;3.83;;;0.93;;
5521;SDS011;2783;48.730;8.006;2023-08-06T09:00:39;1.63;;;1.00;;
5521;SDS011;2783;48.730;8.006;2023-08-06T09:03:10;1.48;;;0.90;;
5521;SDS011;2783;48.730;8.006;2023-08-06T09:05:36;4.32;;;0.90;;
5521;SDS011;2783;48.730;8.006;2023-08-06T09:08:08;2.70;;;1.15;;
5521;SDS011;2783;48.730;8.006;2023-08-06T09:10:36;4.07;;;1.00;;
5521;SDS011;2783;48.730;8.006;2023-08-06T09:13:02;2.40;;;1.20;;
5521;SDS011;2783;48.730;8.006;2023-08-06T09:15:28;1.83;;;1.10;;
5521;SDS011;2783;48.730;8.006;2023-08-06T09:17:55;1.13;;;0.63;;
5521;SDS011;2783;48.730;8.006;2023-08-06T09:20:20;2.00;;;1.00;;
5521;SDS011;2783;48.730;8.006;2023-08-06T09:22:46;0.70;;;0.52;;
5521;SDS011;2783;48.730;8.006;2023-08-06T09:25:13;0.47;;;0.40;;
5521;SDS011;2783;48.730;8.006;2023-08-06T09:27:46;7.47;;;2.17;;
5521;SDS011;2783;48.730;8.006;2023-08-06T09:30:12;1.25;;;0.63;;
5521;SDS011;2783;48.730;8.006;2023-08-06T09:32:55;3.80;;;1.00;;
5521;SDS011;2783;48.730;8.006;2023-08-06T09:35:20;0.60;;;0.60;;
5521;SDS011;2783;48.730;8.006;2023-08-06T09:37:47;0.40;;;0.40;;
5521;SDS011;2783;48.730;8.006;2023-08-06T09:40:25;2.15;;;0.73;;
5521;SDS011;2783;48.730;8.006;2023-08-06T09:42:54;2.13;;;0.80;;
5521;SDS011;2783;48.730;8.006;2023-08-06T09:45:19;0.82;;;0.60;;
5521;SDS011;2783;48.730;8.006;2023-08-06T09:47:47;1.27;;;0.47;;
5521;SDS011;2783;48.730;8.006;2023-08-06T09:50:16;0.65;;;0.43;;
5521;SDS011;2783;48.730;8.006;2023-08-06T09:52:43;0.68;;;0.55;;
5521;SDS011;2783;48.730;8.006;2023-08-06T09:55:10;0.43;;;0.43;;
5521;SDS011;2783;48.730;8.006;2023-08-06T09:57:37;2.05;;;0.60;;
5521;SDS011;2783;48.730;8.006;2023-08-06T10:00:03;0.88;;;0.50;;
5521;SDS011;2783;48.730;8.006;2023-08-06T10:02:30;1.38;;;0.70;;
5521;SDS011;2783;48.730;8.006;2023-08-06T10:04:57;0.73;;;0.50;;
5521;SDS011;2783;48.730;8.006;2023-08-06T10:07:23;1.25;;;0.73;;
5521;SDS011;2783;48.730;8.006;2023-08-06T10:09:49;1.90;;;1.00;;
5521;SDS011;2783;48.730;8.006;2023-08-06T10:12:14;2.25;;;1.05;;
5521;SDS011;2783;48.730;8.006;2023-08-06T10:14:44;1.60;;;0.90;;
5521;SDS011;2783;48.730;8.006;2023-08-06T10:17:11;2.53;;;0.90;;
5521;SDS011;2783;48.730;8.006;2023-08-06T10:19:37;3.50;;;1.40;;
5521;SDS011;2783;48.730;8.006;2023-08-06T10:22:09;2.47;;;1.10;;
5521;SDS011;2783;48.730;8.006;2023-08-06T10:29:46;2.50;;;1.48;;
5521;SDS011;2783;48.730;8.006;2023-08-06T10:32:11;2.83;;;1.55;;
5521;SDS011;2783;48.730;8.006;2023-08-06T10:37:44;2.95;;;1.30;;
5521;SDS011;2783;48.730;8.006;2023-08-06T10:40:10;3.90;;;1.70;;
5521;SDS011;2783;48.730;8.006;2023-08-06T10:42:35;5.18;;;1.90;;
5521;SDS011;2783;48.730;8.006;2023-08-06T10:45:17;3.90;;;1.80;;
5521;SDS011;2783;48.730;8.006;2023-08-06T10:47:43;4.70;;;1.60;;
5521;SDS011;2783;48.730;8.006;2023-08-06T10:50:16;2.88;;;1.42;;
5521;SDS011;2783;48.730;8.006;2023-08-06T10:52:46;6.95;;;2.00;;
5521;SDS011;2783;48.730;8.006;2023-08-06T10:55:12;2.40;;;1.40;;
5521;SDS011;2783;48.730;8.006;2023-08-06T10:57:54;4.10;;;1.60;;
5521;SDS011;2783;48.730;8.006;2023-08-06T11:00:21;5.78;;;2.15;;
5521;SDS011;2783;48.730;8.006;2023-08-06T11:02:48;6.28;;;1.73;;
5521;SDS011;2783;48.730;8.006;2023-08-06T11:05:14;6.30;;;3.28;;
5521;SDS011;2783;48.730;8.006;2023-08-06T11:07:40;4.18;;;1.80;;
5521;SDS011;2783;48.730;8.006;2023-08-06T11:10:10;6.13;;;1.50;;
5521;SDS011;2783;48.730;8.006;2023-08-06T11:12:37;4.18;;;1.30;;
5521;SDS011;2783;48.730;8.006;2023-08-06T11:15:03;3.67;;;1.40;;
5521;SDS011;2783;48.730;8.006;2023-08-06T11:17:29;4.22;;;1.38;;
5521;SDS011;2783;48.730;8.006;2023-08-06T11:19:56;2.75;;;1.27;;
5521;SDS011;2783;48.730;8.006;2023-08-06T11:22:24;3.40;;;1.35;;
5521;SDS011;2783;48.730;8.006;2023-08-06T11:24:50;4.00;;;1.38;;
5521;SDS011;2783;48.730;8.006;2023-08-06T11:27:15;3.72;;;1.30;;
5521;SDS011;2783;48.730;8.006;2023-08-06T11:29:42;2.85;;;1.27;;
5521;SDS011;2783;48.730;8.006;2023-08-06T11:32:09;2.83;;;1.30;;
5521;SDS011;2783;48.730;8.006;2023-08-06T11:34:35;3.10;;;1.30;;
5521;SDS011;2783;48.730;8.006;2023-08-06T11:37:04;2.13;;;1.20;;
5521;SDS011;2783;48.730;8.006;2023-08-06T11:39:32;2.80;;;1.10;;
5521;SDS011;2783;48.730;8.006;2023-08-06T11:42:04;2.17;;;0.90;;
5521;SDS011;2783;48.730;8.006;2023-08-06T11:44:31;2.53;;;0.95;;
5521;SDS011;2783;48.730;8.006;2023-08-06T11:46:58;3.90;;;1.15;;
5521;SDS011;2783;48.730;8.006;2023-08-06T11:49:42;1.30;;;0.75;;
5521;SDS011;2783;48.730;8.006;2023-08-06T11:52:10;1.67;;;0.63;;
5521;SDS011;2783;48.730;8.006;2023-08-06T11:54:48;2.47;;;0.93;;
5521;SDS011;2783;48.730;8.006;2023-08-06T11:57:35;2.17;;;0.82;;
5521;SDS011;2783;48.730;8.006;2023-08-06T12:00:04;1.38;;;0.75;;
5521;SDS011;2783;48.730;8.006;2023-08-06T12:02:38;1.50;;;0.70;;
5521;SDS011;2783;48.730;8.006;2023-08-06T12:07:36;1.90;;;1.30;;
5521;SDS011;2783;48.730;8.006;2023-08-06T12:10:03;1.35;;;0.82;;
5521;SDS011;2783;48.730;8.006;2023-08-06T12:12:29;1.55;;;0.68;;
5521;SDS011;2783;48.730;8.006;2023-08-06T12:14:55;1.17;;;0.68;;
5521;SDS011;2783;48.730;8.006;2023-08-06T12:17:21;4.78;;;1.35;;
5521;SDS011;2783;48.730;8.006;2023-08-06T12:19:47;1.85;;;0.70;;
5521;SDS011;2783;48.730;8.006;2023-08-06T12:22:13;0.93;;;0.75;;
5521;SDS011;2783;48.730;8.006;2023-08-06T12:24:39;4.75;;;1.27;;
5521;SDS011;2783;48.730;8.006;2023-08-06T12:27:05;2.58;;;0.93;;
5521;SDS011;2783;48.730;8.006;2023-08-06T12:29:31;3.70;;;0.63;;
5521;SDS011;2783;48.730;8.006;2023-08-06T12:31:56;0.90;;;0.65;;
5521;SDS011;2783;48.730;8.006;2023-08-06T12:34:22;1.38;;;0.70;;
5521;SDS011;2783;48.730;8.006;2023-08-06T12:36:48;2.08;;;0.60;;
5521;SDS011;2783;48.730;8.006;2023-08-06T12:39:13;1.13;;;0.60;;
5521;SDS011;2783;48.730;8.006;2023-08-06T12:41:38;1.45;;;0.70;;
5521;SDS011;2783;48.730;8.006;2023-08-06T12:44:04;0.60;;;0.60;;
5521;SDS011;2783;48.730;8.006;2023-08-06T12:46:30;3.38;;;0.63;;
5521;SDS011;2783;48.730;8.006;2023-08-06T12:48:56;0.75;;;0.50;;
5521;SDS011;2783;48.730;8.006;2023-08-06T12:51:22;0.77;;;0.60;;
5521;SDS011;2783;48.730;8.006;2023-08-06T12:53:48;1.00;;;0.60;;
5521;SDS011;2783;48.730;8.006;2023-08-06T12:56:14;0.95;;;0.80;;
5521;SDS011;2783;48.730;8.006;2023-08-06T12:58:39;2.60;;;0.80;;
5521;SDS011;2783;48.730;8.006;2023-08-06T13:01:05;1.58;;;0.57;;
5521;SDS011;2783;48.730;8.006;2023-08-06T13:03:30;2.80;;;0.77;;
5521;SDS011;2783;48.730;8.006;2023-08-06T13:05:56;1.00;;;0.55;;
5521;SDS011;2783;48.730;8.006;2023-08-06T13:08:23;1.33;;;0.60;;
5521;SDS011;2783;48.730;8.006;2023-08-06T13:10:48;1.77;;;0.70;;
5521;SDS011;2783;48.730;8.006;2023-08-06T13:13:13;1.45;;;0.70;;
5521;SDS011;2783;48.730;8.006;2023-08-06T13:15:39;0.73;;;0.70;;
5521;SDS011;2783;48.730;8.006;2023-08-06T13:18:04;3.10;;;0.77;;
5521;SDS011;2783;48.730;8.006;2023-08-06T13:20:30;2.33;;;0.70;;
5521;SDS011;2783;48.730;8.006;2023-08-06T13:22:56;2.67;;;1.00;;
5521;SDS011;2783;48.730;8.006;2023-08-06T13:25:23;1.40;;;0.60;;
5521;SDS011;2783;48.730;8.006;2023-08-06T13:27:48;0.77;;;0.52;;
5521;SDS011;2783;48.730;8.006;2023-08-06T13:30:14;1.70;;;0.43;;
5521;SDS011;2783;48.730;8.006;2023-08-06T13:32:39;1.15;;;0.63;;
5521;SDS011;2783;48.730;8.006;2023-08-06T13:35:05;3.97;;;0.80;;
5521;SDS011;2783;48.730;8.006;2023-08-06T13:37:30;0.93;;;0.60;;
5521;SDS011;2783;48.730;8.006;2023-08-06T13:39:56;4.38;;;0.60;;
5521;SDS011;2783;48.730;8.006;2023-08-06T13:42:22;2.40;;;1.00;;
5521;SDS011;2783;48.730;8.006;2023-08-06T13:44:47;1.30;;;0.73;;
5521;SDS011;2783;48.730;8.006;2023-08-06T13:47:13;0.80;;;0.60;;
5521;SDS011;2783;48.730;8.006;2023-08-06T13:49:38;2.00;;;0.70;;
5521;SDS011;2783;48.730;8.006;2023-08-06T13:52:04;3.03;;;1.02;;
5521;SDS011;2783;48.730;8.006;2023-08-06T13:54:29;0.85;;;0.60;;
5521;SDS011;2783;48.730;8.006;2023-08-06T13:56:55;1.60;;;0.73;;
5521;SDS011;2783;48.730;8.006;2023-08-06T13:59:20;2.35;;;0.80;;
5521;SDS011;2783;48.730;8.006;2023-08-06T14:01:45;0.88;;;0.60;;
5521;SDS011;2783;48.730;8.006;2023-08-06T14:04:12;1.13;;;0.60;;
5521;SDS011;2783;48.730;8.006;2023-08-06T14:06:38;1.13;;;0.60;;
5521;SDS011;2783;48.730;8.006;2023-08-06T14:09:04;1.08;;;0.70;;
5521;SDS011;2783;48.730;8.006;2023-08-06T14:11:29;2.08;;;0.85;;
5521;SDS011;2783;48.730;8.006;2023-08-06T14:13:55;2.25;;;0.50;;
5521;SDS011;2783;48.730;8.006;2023-08-06T14:16:20;1.92;;;0.70;;
5521;SDS011;2783;48.730;8.006;2023-08-06T14:18:46;2.10;;;0.75;;
5521;SDS011;2783;48.730;8.006;2023-08-06T14:21:11;2.05;;;0.50;;
5521;SDS011;2783;48.730;8.006;2023-08-06T14:23:36;2.35;;;0.70;;
5521;SDS011;2783;48.730;8.006;2023-08-06T14:26:02;1.80;;;0.50;;
5521;SDS011;2783;48.730;8.006;2023-08-06T14:28:27;2.05;;;0.75;;
5521;SDS011;2783;48.730;8.006;2023-08-06T14:30:52;0.93;;;0.70;;
5521;SDS011;2783;48.730;8.006;2023-08-06T14:33:18;1.92;;;0.73;;
5521;SDS011;2783;48.730;8.006;2023-08-06T14:35:43;3.03;;;0.70;;
5521;SDS011;2783;48.730;8.006;2023-08-06T14:38:09;1.15;;;0.50;;
5521;SDS011;2783;48.730;8.006;2023-08-06T14:40:35;0.93;;;0.55;;
5521;SDS011;2783;48.730;8.006;2023-08-06T14:43:03;1.20;;;0.55;;
5521;SDS011;2783;48.730;8.006;2023-08-06T14:45:30;1.48;;;0.60;;
5521;SDS011;2783;48.730;8.006;2023-08-06T14:47:55;1.60;;;0.65;;
5521;SDS011;2783;48.730;8.006;2023-08-06T14:50:21;1.38;;;0.57;;
5521;SDS011;2783;48.730;8.006;2023-08-06T14:52:47;1.95;;;0.77;;
5521;SDS011;2783;48.730;8.006;2023-08-06T14:55:17;2.65;;;0.60;;
5521;SDS011;2783;48.730;8.006;2023-08-06T14:57:48;0.57;;;0.50;;
5521;SDS011;2783;48.730;8.006;2023-08-06T15:00:13;6.25;;;0.80;;
5521;SDS011;2783;48.730;8.006;2023-08-06T15:02:38;2.70;;;1.20;;
5521;SDS011;2783;48.730;8.006;2023-08-06T15:05:04;1.05;;;0.55;;
5521;SDS011;2783;48.730;8.006;2023-08-06T15:07:30;0.80;;;0.55;;
5521;SDS011;2783;48.730;8.006;2023-08-06T15:09:58;0.95;;;0.60;;
5521;SDS011;2783;48.730;8.006;2023-08-06T15:12:23;0.88;;;0.55;;
5521;SDS011;2783;48.730;8.006;2023-08-06T15:14:49;1.52;;;0.60;;
5521;SDS011;2783;48.730;8.006;2023-08-06T15:17:14;1.38;;;0.60;;
5521;SDS011;2783;48.730;8.006;2023-08-06T15:19:39;1.90;;;0.60;;
5521;SDS011;2783;48.730;8.006;2023-08-06T15:22:05;3.30;;;0.60;;
5521;SDS011;2783;48.730;8.006;2023-08-06T15:24:30;1.35;;;0.60;;
5521;SDS011;2783;48.730;8.006;2023-08-06T15:26:56;1.33;;;0.50;;
5521;SDS011;2783;48.730;8.006;2023-08-06T15:29:22;3.50;;;0.95;;